createdAt,value
2023-05-11T00:01:38.907Z,102274.34
2023-05-11T00:04:44.431Z,102276.91
2023-05-11T00:07:50.938Z,102282.88
2023-05-11T00:10:56.120Z,102285.44
2023-05-11T00:14:01.126Z,102285.41
2023-05-11T00:17:06.314Z,102287.13
2023-05-11T00:20:12.698Z,102285.41
2023-05-11T00:23:19.152Z,102281.19
2023-05-11T00:26:24.171Z,102286.31
2023-05-11T00:29:29.575Z,102293.09
2023-05-11T00:32:34.776Z,102288.00
2023-05-11T00:35:39.864Z,102284.59
2023-05-11T00:38:46.560Z,102282.88
2023-05-11T00:41:51.627Z,102284.56
2023-05-11T00:44:56.715Z,102290.53
2023-05-11T00:48:02.100Z,102287.16
2023-05-11T00:51:08.313Z,102293.94
2023-05-11T00:54:15.838Z,102291.41
2023-05-11T00:57:21.399Z,102288.84
2023-05-11T01:00:26.924Z,102290.53
2023-05-11T01:03:32.091Z,102286.28
2023-05-11T01:06:44.783Z,102283.75
2023-05-11T01:10:00.888Z,102288.84
2023-05-11T01:13:12.240Z,102296.47
2023-05-11T01:16:21.581Z,102283.72
2023-05-11T01:19:41.999Z,102294.78
2023-05-11T01:23:08.962Z,102285.44
2023-05-11T01:26:36.236Z,102298.19
2023-05-11T01:29:57.915Z,102286.28
2023-05-11T01:33:09.205Z,102291.38
2023-05-11T01:36:15.594Z,102292.25
2023-05-11T01:39:23.783Z,102294.78
2023-05-11T01:42:37.042Z,102288.00
2023-05-11T01:45:44.993Z,102287.16
2023-05-11T01:48:54.294Z,102293.97
2023-05-11T01:52:01.232Z,102293.09
2023-05-11T01:55:08.018Z,102305.84
2023-05-11T01:58:16.456Z,102299.88
2023-05-11T02:01:21.921Z,102293.06
2023-05-11T02:04:30.509Z,102293.97
2023-05-11T02:07:37.443Z,102297.34
2023-05-11T02:10:43.245Z,102298.19
2023-05-11T02:13:49.724Z,102305.84
2023-05-11T02:16:55.117Z,102290.56
2023-05-11T02:20:02.710Z,102299.03
2023-05-11T02:23:12.785Z,102303.28
2023-05-11T02:26:18.208Z,102296.50
2023-05-11T02:29:23.339Z,102301.59
2023-05-11T02:32:30.076Z,102299.88
2023-05-11T02:35:39.761Z,102304.16
2023-05-11T02:38:45.971Z,102299.91
2023-05-11T02:41:56.533Z,102301.56
2023-05-11T02:45:03.903Z,102304.16
2023-05-11T02:48:12.804Z,102303.31
2023-05-11T02:51:20.455Z,102308.41
2023-05-11T02:54:28.659Z,102304.97
2023-05-11T02:57:34.095Z,102301.59
2023-05-11T03:00:44.722Z,102309.25
2023-05-11T03:03:50.171Z,102305.84
2023-05-11T03:06:57.860Z,102307.53
2023-05-11T03:10:03.301Z,102320.31
2023-05-11T03:13:16.727Z,102308.41
2023-05-11T03:16:23.076Z,102311.78
2023-05-11T03:19:29.245Z,102313.50
2023-05-11T03:22:37.541Z,102310.97
2023-05-11T03:25:43.754Z,102312.66
2023-05-11T03:28:49.505Z,102315.22
2023-05-11T03:31:55.321Z,102314.34
2023-05-11T03:35:01.868Z,102311.78
2023-05-11T03:38:08.569Z,102315.19
2023-05-11T03:41:17.580Z,102313.47
2023-05-11T03:44:28.078Z,102323.66
2023-05-11T03:47:35.518Z,102322.81
2023-05-11T03:50:41.108Z,102321.09
2023-05-11T03:53:47.756Z,102320.25
2023-05-11T03:56:53.340Z,102321.09
2023-05-11T03:59:58.728Z,102321.91
2023-05-11T04:03:06.925Z,102314.25
2023-05-11T04:06:12.248Z,102320.19
2023-05-11T04:09:18.869Z,102319.28
2023-05-11T04:12:23.994Z,102315.03
2023-05-11T04:15:31.211Z,102321.84
2023-05-11T04:18:36.430Z,102316.72
2023-05-11T04:21:41.552Z,102318.34
2023-05-11T04:24:48.837Z,102320.06
2023-05-11T04:27:53.952Z,102321.69
2023-05-11T04:30:59.360Z,102318.22
2023-05-11T04:34:04.281Z,102312.22
2023-05-11T04:37:11.894Z,102319.03
2023-05-11T04:40:20.222Z,102323.28
2023-05-11T04:43:26.986Z,102322.34
2023-05-11T04:46:32.193Z,102322.28
2023-05-11T04:49:37.510Z,102329.09
2023-05-11T04:52:42.895Z,102322.22
2023-05-11T04:55:49.446Z,102322.22
2023-05-11T04:58:54.670Z,102319.66
2023-05-11T05:01:59.765Z,102318.63
2023-05-11T05:05:05.099Z,102319.31
2023-05-11T05:08:10.268Z,102311.59
2023-05-11T05:11:17.957Z,102316.53
2023-05-11T05:14:25.761Z,102320.72
2023-05-11T05:17:31.687Z,102319.78
2023-05-11T05:20:36.761Z,102330.78
2023-05-11T05:23:42.031Z,102331.56
2023-05-11T05:26:48.539Z,102328.00
2023-05-11T05:29:53.626Z,102324.44
2023-05-11T05:32:59.624Z,102332.97
2023-05-11T05:36:05.228Z,102336.22
2023-05-11T05:39:12.712Z,102330.13
2023-05-11T05:42:20.282Z,102341.88
2023-05-11T05:45:26.053Z,102337.41
2023-05-11T05:48:31.674Z,102335.53
2023-05-11T05:51:37.598Z,102330.13
2023-05-11T05:54:52.491Z,102336.69
2023-05-11T05:57:59.043Z,102326.97
2023-05-11T06:01:04.184Z,102326.78
2023-05-11T06:04:09.894Z,102329.03
2023-05-11T06:07:15.625Z,102322.03
2023-05-11T06:10:20.893Z,102332.91
2023-05-11T06:13:27.670Z,102325.72
2023-05-11T06:16:32.853Z,102326.31
2023-05-11T06:19:38.674Z,102322.63
2023-05-11T06:22:43.729Z,102330.91
2023-05-11T06:25:49.630Z,102332.91
2023-05-11T06:28:56.667Z,102326.72
2023-05-11T06:32:03.186Z,102331.69
2023-05-11T06:35:11.664Z,102329.16
2023-05-11T06:38:17.420Z,102328.03
2023-05-11T06:41:22.740Z,102326.94
2023-05-11T06:44:29.389Z,102336.00
2023-05-11T06:47:36.723Z,102337.75
2023-05-11T06:50:42.060Z,102345.19
2023-05-11T06:53:51.010Z,102331.31
2023-05-11T06:56:56.064Z,102334.38
2023-05-11T07:00:02.513Z,102340.22
2023-05-11T07:03:08.124Z,102338.91
2023-05-11T07:06:13.885Z,102334.59
2023-05-11T07:09:19.078Z,102339.81
2023-05-11T07:12:24.954Z,102335.94
2023-05-11T07:15:31.504Z,102343.06
2023-05-11T07:18:36.632Z,102350.78
2023-05-11T07:21:43.885Z,102352.34
2023-05-11T07:24:48.950Z,102354.69
2023-05-11T07:27:54.101Z,102349.69
2023-05-11T07:31:00.690Z,102350.00
2023-05-11T07:34:05.874Z,102353.97
2023-05-11T07:37:12.312Z,102355.47
2023-05-11T07:40:17.910Z,102367.22
2023-05-11T07:43:23.260Z,102347.75
2023-05-11T07:46:29.845Z,102352.69
2023-05-11T07:49:42.809Z,102349.28
2023-05-11T07:52:49.418Z,102356.94
2023-05-11T07:55:54.602Z,102353.59
2023-05-11T07:58:59.620Z,102362.88
2023-05-11T08:02:06.855Z,102350.22
2023-05-11T08:05:12.603Z,102356.84
2023-05-11T08:08:18.033Z,102359.72
2023-05-11T08:11:24.235Z,102350.22
2023-05-11T08:14:29.510Z,102360.31
2023-05-11T08:17:36.583Z,102365.16
2023-05-11T08:20:42.312Z,102365.78
2023-05-11T08:23:47.368Z,102356.09
2023-05-11T08:26:52.412Z,102360.47
2023-05-11T08:29:58.544Z,102358.03
2023-05-11T08:33:17.640Z,102360.47
2023-05-11T08:36:30.195Z,102362.78
2023-05-11T08:39:46.778Z,102366.72
2023-05-11T08:42:55.836Z,102363.06
2023-05-11T08:46:05.162Z,102365.31
2023-05-11T08:49:14.585Z,102367.09
2023-05-11T08:52:20.655Z,102362.09
2023-05-11T08:55:28.622Z,102370.00
2023-05-11T08:58:34.643Z,102359.97
2023-05-11T09:01:41.929Z,102371.97
2023-05-11T09:04:49.365Z,102363.09
2023-05-11T09:07:58.247Z,102365.44
2023-05-11T09:11:03.622Z,102361.91
2023-05-11T09:14:08.709Z,102369.28
2023-05-11T09:17:14.300Z,102364.94
2023-05-11T09:20:28.320Z,102362.78
2023-05-11T09:23:34.500Z,102368.25
2023-05-11T09:26:39.698Z,102371.38
2023-05-11T09:32:58.258Z,102374.13
2023-05-11T09:36:06.008Z,102379.19
2023-05-11T09:42:20.991Z,102373.31
2023-05-11T09:45:42.124Z,102379.84
2023-05-11T09:48:47.245Z,102375.41
2023-05-11T09:52:02.788Z,102371.63
2023-05-11T09:55:12.707Z,102374.34
2023-05-11T09:58:17.852Z,102380.38
2023-05-11T10:01:32.390Z,102375.50
2023-05-11T10:04:37.544Z,102380.69
2023-05-11T10:07:43.963Z,102374.59
2023-05-11T10:10:49.315Z,102376.47
2023-05-11T10:13:55.222Z,102378.63
2023-05-11T10:17:00.559Z,102365.56
2023-05-11T10:20:06.988Z,102360.59
2023-05-11T10:23:17.759Z,102373.69
2023-05-11T10:26:23.003Z,102378.09
2023-05-11T10:29:28.663Z,102367.09
2023-05-11T10:32:37.462Z,102367.50
2023-05-11T10:35:42.967Z,102367.19
2023-05-11T10:38:49.215Z,102376.16
2023-05-11T10:42:06.083Z,102360.75
2023-05-11T10:45:23.892Z,102367.38
2023-05-11T10:48:44.087Z,102376.56
2023-05-11T10:52:05.564Z,102367.66
2023-05-11T10:55:21.678Z,102368.81
2023-05-11T10:58:35.334Z,102369.03
2023-05-11T11:01:41.831Z,102364.75
2023-05-11T11:04:48.178Z,102375.69
2023-05-11T11:08:00.330Z,102365.13
2023-05-11T11:11:29.530Z,102375.44
2023-05-11T11:14:55.188Z,102370.56
2023-05-11T11:18:21.253Z,102366.91
2023-05-11T11:21:42.754Z,102375.97
2023-05-11T11:24:48.795Z,102367.47
2023-05-11T11:28:00.198Z,102367.66
2023-05-11T11:31:26.809Z,102372.34
2023-05-11T11:34:39.133Z,102370.75
2023-05-11T11:38:02.189Z,102370.25
2023-05-11T11:41:10.121Z,102376.44
2023-05-11T11:44:24.463Z,102377.53
2023-05-11T11:47:29.649Z,102373.75
2023-05-11T11:50:35.348Z,102364.50
2023-05-11T11:54:07.895Z,102378.81
2023-05-11T11:57:49.213Z,102377.28
2023-05-11T12:00:57.076Z,102378.09
2023-05-11T12:04:33.503Z,102384.38
2023-05-11T12:07:42.779Z,102389.78
2023-05-11T12:10:49.714Z,102384.47
2023-05-11T12:13:55.363Z,102391.75
2023-05-11T12:17:16.517Z,102388.78
2023-05-11T12:20:22.825Z,102387.72
2023-05-11T12:23:28.762Z,102390.19
2023-05-11T12:26:35.852Z,102395.19
2023-05-11T12:29:41.547Z,102396.28
2023-05-11T12:32:48.250Z,102384.63
2023-05-11T12:35:54.707Z,102383.06
2023-05-11T12:38:59.991Z,102386.81
2023-05-11T12:42:05.501Z,102401.22
2023-05-11T12:45:12.727Z,102385.31
2023-05-11T12:48:19.136Z,102383.00
2023-05-11T12:51:53.178Z,102393.09
2023-05-11T12:55:00.146Z,102382.72
2023-05-11T12:58:14.188Z,102385.78
2023-05-11T13:01:26.450Z,102389.53
2023-05-11T13:04:33.321Z,102377.47
2023-05-11T13:07:38.473Z,102379.88
2023-05-11T13:10:43.564Z,102377.81
2023-05-11T13:13:48.664Z,102382.53
2023-05-11T13:16:56.951Z,102387.72
2023-05-11T13:23:32.570Z,102373.78
2023-05-11T13:26:37.848Z,102378.19
2023-05-11T13:29:43.006Z,102381.75
2023-05-11T13:32:48.054Z,102378.16
2023-05-11T13:35:53.221Z,102385.06
2023-05-11T13:38:59.679Z,102378.03
2023-05-11T13:42:05.087Z,102381.75
2023-05-11T13:45:12.018Z,102381.63
2023-05-11T13:48:35.444Z,102371.88
2023-05-11T13:51:40.507Z,102375.41
2023-05-11T13:54:47.088Z,102377.75
2023-05-11T13:57:52.656Z,102377.13
2023-05-11T14:01:08.081Z,102380.75
2023-05-11T14:04:13.891Z,102371.00
2023-05-11T14:07:18.982Z,102378.00
2023-05-11T14:10:26.011Z,102375.00
2023-05-11T14:13:33.296Z,102380.97
2023-05-11T14:16:38.584Z,102370.31
2023-05-11T14:19:44.135Z,102372.84
2023-05-11T14:22:49.516Z,102367.13
2023-05-11T14:25:55.728Z,102374.88
2023-05-11T14:29:00.981Z,102365.31
2023-05-11T14:32:06.565Z,102378.13
2023-05-11T14:35:13.089Z,102374.75
2023-05-11T14:38:18.387Z,102382.53
2023-05-11T14:41:25.669Z,102371.25
2023-05-11T14:44:31.392Z,102375.50
2023-05-11T14:47:36.853Z,102375.50
2023-05-11T14:50:43.099Z,102375.84
2023-05-11T14:53:48.215Z,102364.44
2023-05-11T14:56:56.647Z,102367.44
2023-05-11T15:00:03.070Z,102376.69
2023-05-11T15:03:10.763Z,102371.63
2023-05-11T15:06:21.248Z,102370.34
2023-05-11T15:09:26.444Z,102372.06
2023-05-11T15:12:33.025Z,102369.13
2023-05-11T15:15:38.432Z,102377.97
2023-05-11T15:18:45.184Z,102373.53
2023-05-11T15:21:50.270Z,102377.03
2023-05-11T15:24:56.095Z,102379.63
2023-05-11T15:28:02.633Z,102375.69
2023-05-11T15:31:07.711Z,102376.66
2023-05-11T15:34:13.636Z,102373.78
2023-05-11T15:37:18.784Z,102369.94
2023-05-11T15:40:24.474Z,102371.38
2023-05-11T15:43:30.879Z,102372.69
2023-05-11T15:46:36.831Z,102377.41
2023-05-11T15:49:41.922Z,102374.59
2023-05-11T15:52:47.033Z,102377.13
2023-05-11T15:55:55.401Z,102381.28
2023-05-11T15:59:02.218Z,102378.47
2023-05-11T16:02:07.777Z,102381.47
2023-05-11T16:05:13.644Z,102375.44
2023-05-11T16:08:18.950Z,102374.56
2023-05-11T16:11:24.226Z,102383.56
2023-05-11T16:14:32.876Z,102379.53
2023-05-11T16:17:38.486Z,102376.13
2023-05-11T16:20:43.641Z,102385.66
2023-05-11T16:23:48.708Z,102389.38
2023-05-11T16:26:53.848Z,102387.50
2023-05-11T16:30:04.005Z,102393.28
2023-05-11T16:33:15.365Z,102384.00
2023-05-11T16:36:21.185Z,102403.44
2023-05-11T16:39:26.831Z,102395.09
2023-05-11T16:42:32.299Z,102398.00
2023-05-11T16:45:38.863Z,102403.75
2023-05-11T16:48:44.112Z,102396.34
2023-05-11T16:51:49.425Z,102397.72
2023-05-11T16:54:55.742Z,102397.38
2023-05-11T16:58:03.192Z,102399.25
2023-05-11T17:01:09.786Z,102405.13
2023-05-11T17:04:15.238Z,102404.47
2023-05-11T17:07:20.340Z,102402.41
2023-05-11T17:10:25.756Z,102408.41
2023-05-11T17:13:30.982Z,102411.16
2023-05-11T17:16:37.607Z,102400.81
2023-05-11T17:19:43.383Z,102405.81
2023-05-11T17:22:49.259Z,102408.34
2023-05-11T17:25:55.032Z,102417.47
2023-05-11T17:29:00.304Z,102407.69
2023-05-11T17:32:07.295Z,102413.50
2023-05-11T17:35:13.152Z,102426.66
2023-05-11T17:38:18.235Z,102423.09
2023-05-11T17:41:23.507Z,102423.94
2023-05-11T17:44:31.610Z,102424.78
2023-05-11T17:47:38.150Z,102422.75
2023-05-11T17:50:43.365Z,102426.38
2023-05-11T17:53:49.852Z,102423.97
2023-05-11T17:56:54.929Z,102428.69
2023-05-11T18:00:00.276Z,102432.41
2023-05-11T18:03:07.052Z,102439.41
2023-05-11T18:06:12.758Z,102439.59
2023-05-11T18:09:18.910Z,102442.63
2023-05-11T18:12:24.224Z,102439.63
2023-05-11T18:15:29.366Z,102436.22
2023-05-11T18:18:36.177Z,102438.81
2023-05-11T18:21:41.583Z,102445.22
2023-05-11T18:24:46.788Z,102447.84
2023-05-11T18:27:52.145Z,102450.13
2023-05-11T18:30:57.407Z,102456.91
2023-05-11T18:34:04.366Z,102456.19
2023-05-11T18:37:10.734Z,102466.34
2023-05-11T18:40:15.781Z,102466.25
2023-05-11T18:43:21.127Z,102467.22
2023-05-11T18:46:26.326Z,102477.97
2023-05-11T18:49:32.982Z,102481.13
2023-05-11T18:52:40.519Z,102478.16
2023-05-11T18:55:53.109Z,102476.38
2023-05-11T18:58:59.067Z,102483.69
2023-05-11T19:02:04.651Z,102488.34
2023-05-11T19:05:14.000Z,102482.31
2023-05-11T19:08:19.188Z,102489.44
2023-05-11T19:11:24.217Z,102493.28
2023-05-11T19:14:29.673Z,102504.41
2023-05-11T19:17:35.188Z,102498.13
2023-05-11T19:20:41.767Z,102493.19
2023-05-11T19:23:48.621Z,102505.28
2023-05-11T19:27:05.728Z,102505.47
2023-05-11T19:30:12.655Z,102507.38
2023-05-11T19:33:19.234Z,102511.78
2023-05-11T19:36:25.872Z,102522.19
2023-05-11T19:39:31.030Z,102521.56
2023-05-11T19:42:39.742Z,102519.88
2023-05-11T19:45:46.501Z,102521.72
2023-05-11T19:48:51.620Z,102521.88
2023-05-11T19:51:58.106Z,102515.72
2023-05-11T19:55:03.313Z,102520.94
2023-05-11T19:58:08.581Z,102524.28
2023-05-11T20:01:14.200Z,102526.09
2023-05-11T20:04:19.342Z,102534.78
2023-05-11T20:07:26.252Z,102517.88
2023-05-11T20:10:31.329Z,102519.63
2023-05-11T20:13:36.392Z,102521.34
2023-05-11T20:16:41.702Z,102522.47
2023-05-11T20:19:46.919Z,102523.19
2023-05-11T20:22:53.524Z,102524.28
2023-05-11T20:25:59.137Z,102520.97
2023-05-11T20:29:04.257Z,102520.94
2023-05-11T20:32:09.772Z,102521.09
2023-05-11T20:35:14.967Z,102523.63
2023-05-11T20:38:21.642Z,102516.13
2023-05-11T20:41:27.617Z,102526.31
2023-05-11T20:44:32.699Z,102525.59
2023-05-11T20:47:38.048Z,102522.06
2023-05-11T20:50:43.089Z,102525.59
2023-05-11T20:53:49.513Z,102527.28
2023-05-11T20:56:55.057Z,102521.47
2023-05-11T21:00:04.373Z,102527.34
2023-05-11T21:03:13.933Z,102534.34
2023-05-11T21:06:19.316Z,102538.59
2023-05-11T21:09:26.406Z,102537.81
2023-05-11T21:12:31.716Z,102536.19
2023-05-11T21:15:36.768Z,102537.97
2023-05-11T21:18:42.676Z,102543.16
2023-05-11T21:21:49.571Z,102543.94
2023-05-11T21:24:56.227Z,102546.47
2023-05-11T21:28:02.163Z,102543.16
2023-05-11T21:31:07.368Z,102546.59
2023-05-11T21:34:13.087Z,102558.59
2023-05-11T21:37:20.289Z,102561.22
2023-05-11T21:40:26.719Z,102560.41
2023-05-11T21:43:33.085Z,102565.53
2023-05-11T21:46:38.284Z,102565.41
2023-05-11T21:49:43.445Z,102576.66
2023-05-11T21:52:48.592Z,102581.06
2023-05-11T21:55:55.119Z,102585.41
2023-05-11T21:59:00.208Z,102579.56
2023-05-11T22:02:05.490Z,102577.00
2023-05-11T22:05:13.261Z,102583.81
2023-05-11T22:08:18.313Z,102584.69
2023-05-11T22:11:24.814Z,102582.94
2023-05-11T22:14:30.552Z,102582.88
2023-05-11T22:17:35.892Z,102588.00
2023-05-11T22:20:40.993Z,102594.09
2023-05-11T22:23:46.136Z,102589.88
2023-05-11T22:26:53.484Z,102599.38
2023-05-11T22:29:58.707Z,102594.22
2023-05-11T22:33:04.013Z,102601.06
2023-05-11T22:36:09.909Z,102603.63
2023-05-11T22:39:15.203Z,102611.34
2023-05-11T22:42:21.874Z,102614.72
2023-05-11T22:45:26.899Z,102606.25
2023-05-11T22:48:32.081Z,102613.94
2023-05-11T22:51:37.358Z,102618.19
2023-05-11T22:54:42.401Z,102619.06
2023-05-11T22:57:49.535Z,102615.63
2023-05-11T23:00:56.498Z,102616.50
2023-05-11T23:04:02.057Z,102616.53
2023-05-11T23:07:07.968Z,102627.63
2023-05-11T23:10:14.283Z,102625.94
2023-05-11T23:13:20.941Z,102624.22
2023-05-11T23:16:26.166Z,102629.34
2023-05-11T23:19:31.382Z,102625.88
2023-05-11T23:22:36.540Z,102631.09
2023-05-11T23:25:41.679Z,102635.34
2023-05-11T23:28:48.188Z,102632.78
2023-05-11T23:31:53.822Z,102633.63
2023-05-11T23:34:58.872Z,102640.47
2023-05-11T23:38:04.546Z,102644.69
2023-05-11T23:41:10.447Z,102639.59
2023-05-11T23:44:17.561Z,102640.47
2023-05-11T23:47:23.557Z,102636.19
2023-05-11T23:50:28.699Z,102640.44
2023-05-11T23:53:33.905Z,102639.59
2023-05-11T23:56:39.087Z,102640.47
2023-05-11T23:59:46.254Z,102643.84
